createdAt,value
2023-05-01T00:03:39.781Z,631.63
2023-05-01T00:08:43.459Z,652.07
2023-05-01T00:13:45.333Z,661.70
2023-05-01T00:18:49.020Z,616.70
2023-05-01T00:23:52.018Z,596.45
2023-05-01T00:29:03.606Z,590.20
2023-05-01T00:34:06.205Z,620.92
2023-05-01T00:39:08.557Z,601.57
2023-05-01T00:44:10.780Z,591.65
2023-05-01T00:49:13.761Z,606.03
2023-05-01T00:54:15.664Z,584.63
2023-05-01T00:59:22.696Z,587.67
2023-05-01T01:04:25.603Z,591.42
2023-05-01T01:10:05.599Z,557.05
2023-05-01T01:15:18.623Z,583.20
2023-05-01T01:20:30.601Z,569.63
2023-05-01T01:26:03.266Z,564.20
2023-05-01T01:31:30.193Z,563.63
2023-05-01T01:37:00.678Z,543.63
2023-05-01T01:42:09.181Z,552.25
2023-05-01T01:47:13.967Z,550.97
2023-05-01T01:52:17.887Z,564.17
2023-05-01T01:57:23.840Z,566.78
2023-05-01T02:02:28.444Z,555.83
2023-05-01T02:07:42.250Z,574.67
2023-05-01T02:12:49.369Z,560.30
2023-05-01T02:17:53.535Z,567.15
2023-05-01T02:23:06.064Z,576.53
2023-05-01T02:28:29.909Z,576.63
2023-05-01T02:33:31.742Z,587.10
2023-05-01T02:38:33.787Z,591.35
2023-05-01T02:43:38.266Z,601.10
2023-05-01T02:48:42.962Z,590.72
2023-05-01T02:53:46.669Z,594.60
2023-05-01T02:58:56.119Z,597.25
2023-05-01T03:03:58.479Z,576.13
2023-05-01T03:09:01.071Z,583.20
2023-05-01T03:14:02.908Z,580.97
2023-05-01T03:19:13.572Z,574.83
2023-05-01T03:24:15.940Z,589.13
2023-05-01T03:29:21.493Z,587.10
2023-05-01T03:34:23.575Z,576.67
2023-05-01T03:39:25.913Z,578.33
2023-05-01T03:44:47.008Z,590.72
2023-05-01T03:49:50.414Z,574.70
2023-05-01T03:54:52.414Z,577.13
2023-05-01T04:05:24.537Z,601.00
2023-05-01T04:10:29.188Z,568.67
2023-05-01T04:15:36.880Z,567.63
2023-05-01T04:20:42.770Z,579.60
2023-05-01T04:25:47.120Z,587.53
2023-05-01T04:30:52.753Z,574.83
2023-05-01T04:35:54.625Z,585.03
2023-05-01T04:40:56.601Z,583.83
2023-05-01T04:46:00.091Z,591.53
2023-05-01T04:51:03.658Z,583.92
2023-05-01T04:56:09.115Z,601.90
2023-05-01T05:01:14.193Z,616.72
2023-05-01T05:06:16.821Z,610.55
2023-05-01T05:11:24.837Z,636.50
2023-05-01T05:16:37.890Z,584.75
2023-05-01T05:21:43.769Z,592.03
2023-05-01T05:26:47.427Z,595.95
2023-05-01T05:31:50.928Z,608.65
2023-05-01T05:36:53.900Z,603.45
2023-05-01T05:41:59.957Z,609.08
2023-05-01T05:47:02.974Z,616.33
2023-05-01T05:52:07.412Z,621.78
2023-05-01T05:57:09.754Z,610.85
2023-05-01T06:02:22.342Z,617.08
2023-05-01T06:07:25.881Z,626.67
2023-05-01T06:17:47.486Z,632.45
2023-05-01T06:22:49.480Z,621.67
2023-05-01T06:28:12.733Z,624.38
2023-05-01T06:33:18.142Z,632.13
2023-05-01T06:38:27.010Z,623.55
2023-05-01T06:43:33.632Z,629.63
2023-05-01T06:48:36.985Z,625.42
2023-05-01T06:53:42.443Z,637.42
2023-05-01T06:58:45.805Z,661.33
2023-05-01T07:03:47.660Z,661.55
2023-05-01T07:08:51.970Z,658.60
2023-05-01T07:13:54.526Z,676.08
2023-05-01T07:18:57.640Z,689.63
2023-05-01T07:23:59.824Z,698.75
2023-05-01T07:29:05.774Z,698.72
2023-05-01T07:34:10.220Z,690.85
2023-05-01T07:39:13.282Z,702.40
2023-05-01T07:44:15.561Z,731.20
2023-05-01T07:49:17.369Z,731.00
2023-05-01T07:54:22.524Z,741.20
2023-05-01T07:59:27.125Z,761.85
2023-05-01T08:04:30.332Z,760.15
2023-05-01T08:09:32.196Z,774.63
2023-05-01T08:14:34.576Z,782.95
2023-05-01T08:24:58.869Z,801.00
2023-05-01T08:30:01.887Z,819.70
2023-05-01T08:35:04.647Z,831.63
2023-05-01T08:40:11.229Z,856.03
2023-05-01T08:45:13.674Z,868.90
2023-05-01T08:50:18.384Z,887.85
2023-05-01T08:55:21.788Z,898.08
2023-05-01T09:00:25.297Z,904.75
2023-05-01T09:05:32.761Z,920.15
2023-05-01T09:10:44.420Z,961.78
2023-05-01T09:15:49.519Z,963.85
2023-05-01T09:20:53.965Z,949.47
2023-05-01T09:25:57.654Z,960.30
2023-05-01T09:31:09.805Z,966.60
2023-05-01T09:36:18.780Z,994.87
2023-05-01T09:41:23.234Z,972.63
2023-05-01T09:51:45.953Z,999.90
2023-05-01T09:56:49.662Z,996.58
2023-05-01T10:01:54.348Z,999.55
2023-05-01T10:06:58.899Z,993.83
2023-05-01T10:12:00.998Z,991.45
2023-05-01T10:17:17.526Z,992.72
2023-05-01T10:22:19.452Z,992.97
2023-05-01T10:27:24.525Z,992.60
2023-05-01T10:32:27.762Z,992.63
2023-05-01T10:37:48.249Z,982.13
2023-05-01T10:43:30.809Z,993.65
2023-05-01T10:48:43.508Z,982.30
2023-05-01T10:53:47.043Z,991.70
2023-05-01T10:58:59.390Z,995.33
2023-05-01T11:04:08.031Z,991.92
2023-05-01T11:09:39.952Z,996.47
2023-05-01T11:15:13.584Z,999.90
2023-05-01T11:20:27.680Z,997.90
2023-05-01T11:25:40.096Z,999.90
2023-05-01T11:30:45.922Z,999.90
2023-05-01T11:35:57.278Z,999.90
2023-05-01T11:41:01.501Z,999.90
2023-05-01T11:46:06.525Z,999.90
2023-05-01T11:51:15.725Z,999.90
2023-05-01T11:56:45.296Z,999.90
2023-05-01T12:01:47.710Z,999.90
2023-05-01T12:06:49.731Z,999.90
2023-05-01T12:11:55.758Z,999.83
2023-05-01T12:16:57.714Z,998.25
2023-05-01T12:22:10.612Z,988.80
2023-05-01T12:27:14.120Z,986.70
2023-05-01T12:32:16.879Z,986.92
2023-05-01T12:37:19.140Z,985.22
2023-05-01T12:42:23.134Z,984.22
2023-05-01T12:47:26.750Z,992.05
2023-05-01T12:52:28.683Z,979.08
2023-05-01T12:57:33.374Z,982.17
2023-05-01T13:02:43.858Z,972.35
2023-05-01T13:07:49.655Z,980.17
2023-05-01T13:13:04.440Z,985.00
2023-05-01T13:18:06.469Z,976.35
2023-05-01T13:23:15.209Z,986.72
2023-05-01T13:28:22.154Z,983.22
2023-05-01T13:33:28.307Z,982.58
2023-05-01T13:38:33.240Z,972.97
2023-05-01T13:43:35.985Z,975.55
2023-05-01T13:48:39.667Z,958.38
2023-05-01T13:53:46.020Z,960.28
2023-05-01T13:58:47.877Z,957.67
2023-05-01T14:04:00.596Z,951.60
2023-05-01T14:09:07.814Z,941.13
2023-05-01T14:14:18.768Z,938.63
2023-05-01T14:19:20.653Z,931.53
2023-05-01T14:24:24.891Z,926.42
2023-05-01T14:29:28.605Z,910.55
2023-05-01T14:34:30.784Z,919.85
2023-05-01T14:39:33.430Z,917.10
2023-05-01T14:44:40.634Z,898.28
2023-05-01T14:54:48.447Z,897.65
2023-05-01T14:59:52.053Z,893.08
2023-05-01T15:04:54.187Z,899.53
2023-05-01T15:09:56.107Z,900.10
2023-05-01T15:14:58.178Z,895.58
2023-05-01T15:20:00.783Z,889.35
2023-05-01T15:25:03.995Z,909.50
2023-05-01T15:30:06.528Z,897.80
2023-05-01T15:35:08.817Z,901.05
2023-05-01T15:40:12.329Z,895.50
2023-05-01T15:45:14.748Z,902.50
2023-05-01T15:50:34.925Z,884.33
2023-05-01T15:55:36.897Z,885.80
2023-05-01T16:00:39.783Z,892.88
2023-05-01T16:05:49.562Z,895.40
2023-05-01T16:10:53.832Z,885.60
2023-05-01T16:15:55.737Z,883.25
2023-05-01T16:20:58.571Z,889.33
2023-05-01T16:26:00.533Z,892.40
2023-05-01T16:31:08.292Z,908.60
2023-05-01T16:36:16.526Z,895.50
2023-05-01T16:41:18.554Z,897.75
2023-05-01T16:46:20.703Z,895.80
2023-05-01T16:51:23.551Z,900.80
2023-05-01T16:56:26.423Z,904.22
2023-05-01T17:01:28.398Z,914.95
2023-05-01T17:06:31.588Z,904.25
2023-05-01T17:11:33.548Z,903.45
2023-05-01T17:16:35.597Z,906.55
2023-05-01T17:21:37.451Z,903.50
2023-05-01T17:26:39.378Z,898.03
2023-05-01T17:31:41.696Z,883.78
2023-05-01T17:36:43.622Z,870.70
2023-05-01T17:47:01.939Z,869.78
2023-05-01T17:52:06.658Z,865.63
2023-05-01T17:57:08.573Z,871.88
2023-05-01T18:02:10.838Z,848.33
2023-05-01T18:07:12.798Z,846.25
2023-05-01T18:12:14.627Z,850.10
2023-05-01T18:17:16.892Z,838.15
2023-05-01T18:22:19.566Z,841.30
2023-05-01T18:27:22.203Z,850.05
2023-05-01T18:32:32.986Z,859.95
2023-05-01T18:37:45.387Z,841.70
2023-05-01T18:42:47.243Z,857.20
2023-05-01T18:47:49.205Z,866.83
2023-05-01T18:52:51.001Z,850.20
2023-05-01T18:57:52.793Z,872.97
2023-05-01T19:02:54.978Z,859.40
2023-05-01T19:08:01.655Z,815.03
2023-05-01T19:13:07.843Z,843.50
2023-05-01T19:18:10.626Z,820.72
2023-05-01T19:23:13.675Z,797.97
2023-05-01T19:28:16.518Z,789.22
2023-05-01T19:33:18.424Z,772.15
2023-05-01T19:38:20.478Z,773.03
2023-05-01T19:43:22.334Z,767.42
2023-05-01T19:48:24.208Z,752.95
2023-05-01T19:53:28.312Z,752.50
2023-05-01T19:58:30.388Z,737.45
2023-05-01T20:03:32.308Z,735.80
2023-05-01T20:08:42.101Z,735.90
2023-05-01T20:13:45.412Z,733.80
2023-05-01T20:18:47.358Z,710.58
2023-05-01T20:23:50.354Z,723.10
2023-05-01T20:28:53.331Z,696.55
2023-05-01T20:33:55.316Z,676.42
2023-05-01T20:38:57.992Z,688.33
2023-05-01T20:44:01.062Z,679.10
2023-05-01T20:49:03.045Z,675.92
2023-05-01T20:54:04.955Z,678.85
2023-05-01T20:59:06.883Z,662.03
2023-05-01T21:04:08.816Z,679.40
2023-05-01T21:09:14.350Z,679.53
2023-05-01T21:14:16.384Z,655.50
2023-05-01T21:19:18.501Z,647.25
2023-05-01T21:24:25.320Z,650.47
2023-05-01T21:29:29.009Z,641.97
2023-05-01T21:34:31.101Z,644.83
2023-05-01T21:39:33.911Z,646.30
2023-05-01T21:44:36.220Z,624.63
2023-05-01T21:49:39.914Z,632.92
2023-05-01T21:54:41.844Z,610.05
2023-05-01T21:59:45.096Z,633.47
2023-05-01T22:04:46.978Z,626.92
2023-05-01T22:09:49.186Z,647.50
2023-05-01T22:14:51.110Z,641.97
2023-05-01T22:19:53.645Z,650.20
2023-05-01T22:24:55.529Z,671.70
2023-05-01T22:29:57.788Z,651.50
2023-05-01T22:35:00.354Z,653.75
2023-05-01T22:40:03.510Z,652.05
2023-05-01T22:45:07.153Z,652.03
2023-05-01T22:50:10.250Z,651.13
2023-05-01T22:55:12.716Z,637.50
2023-05-01T23:00:14.836Z,643.70
2023-05-01T23:05:18.560Z,650.03
2023-05-01T23:10:25.454Z,644.30
2023-05-01T23:15:27.272Z,660.08
2023-05-01T23:20:29.175Z,647.33
2023-05-01T23:25:31.017Z,643.55
2023-05-01T23:30:32.897Z,624.83
2023-05-01T23:35:34.753Z,637.42
2023-05-01T23:40:37.217Z,653.30
2023-05-01T23:45:40.662Z,656.20
2023-05-01T23:50:42.612Z,646.13
2023-05-01T23:55:46.803Z,618.28
